x

Ilm2 - 5 Miles Se Of Wrightsville Beach, Nc (41038) Weather Station

3:08am - Sun 30th Apr 2017 All times are EDT. -4 hours from GMT.

  • Wind
    11mph, 16mph gusts
  • Sea Temp 71°f
  • Air Temp 72°f
  • Sea Pressure 1021.8mb
  • Ilm2 - 5 Miles Se Of Wrightsville Beach, Nc
  • Ilm2 - 5 Miles Se Of Wrightsville Beach, Nc

More Historic Weather Station data

Upgrade to MSW Pro to gain access to the past 30 days of data for over 8000 Wavebouys and Weather Stations around the globe.

Join Pro

Comparision Forecast

View Surf forecast
   
Sun 04/30 3:08am 11 16 mph 1021.8mb 71f 72f
2:08am 11 13 mph 1022.2mb 71f 73f
1:08am 11 16 mph 1022.6mb 71f 73f
12:08am 11 16 mph 1022.7mb 71f 73f
Sat 04/29 11:08pm 9 13 mph 1023.1mb 71f 73f
10:08pm 9 16 mph 1022.9mb 72f 73f
9:08pm 9 13 mph 1022.5mb 72f 73f
8:08pm 7 13 mph 1022.5mb 72f 73f
7:08pm 9 13 mph 1022.2mb 72f 74f
6:08pm 7 13 mph 1022.4mb 72f 74f
5:08pm 9 13 mph 1022.5mb 72f 74f
4:08pm 11 16 mph 1022.9mb 72f 74f
3:08pm 9 13 mph 1023.3mb 72f 74f
2:08pm 9 13 mph 1023.3mb 72f 74f
1:08pm 9 13 mph 1023.5mb 72f 74f
12:08pm 9 16 mph 1023.8mb 72f 74f
11:08am 9 16 mph 1023.8mb 71f 73f
10:08am 7 11 mph 1024.1mb 71f 73f
9:08am 7 9 mph 1023.8mb 70f 72f
8:08am 9 11 mph 1024mb 70f 72f
7:08am 7 11 mph 1023.6mb 70f 72f
6:08am 4 7 mph 1022.6mb 70f 71f
5:08am 2 4 mph 1021.9mb 70f 70f
4:08am 4 7 mph 1021.2mb 70f 71f
3:08am 11 13 mph 1021mb 70f 72f
2:08am 11 18 mph 1021mb 70f 72f
1:08am 13 18 mph 1021.4mb 70f 73f
12:08am 13 18 mph 1021.5mb 70f 73f
Fri 04/28 11:08pm 9 13 mph 1021.2mb 70f 73f
10:08pm 9 16 mph 1020.8mb 70f 73f
9:08pm 11 16 mph 1020.3mb 70f 73f
8:08pm 9 13 mph 1019.9mb 71f 73f
7:08pm 9 13 mph 1019.8mb 71f 73f
6:08pm 9 13 mph 1019.8mb 71f 73f
5:08pm 9 13 mph 1019.7mb 72f 74f
4:08pm 9 16 mph 1019.5mb 72f 74f
3:08pm 11 18 mph 1019.8mb 71f 74f
2:08pm 11 18 mph 1019.9mb 71f 74f
1:08pm 13 16 mph 1019.6mb 71f 73f
12:08pm 11 18 mph 1019.7mb 70f 73f
11:08am 9 18 mph 1019.3mb 70f 73f
10:08am 9 13 mph 1019mb 70f 73f
9:08am 11 18 mph 1018.4mb 70f 73f
8:08am 9 13 mph 1018.1mb 70f 72f
7:08am 9 13 mph 1017.6mb 71f 72f
6:08am 11 16 mph 1016.7mb 71f 72f
5:08am 11 16 mph 1016.4mb 71f 72f
4:08am 9 13 mph 1015.8mb 71f 72f
3:08am 9 16 mph 1015.3mb 71f 73f
2:08am 11 18 mph 1015mb 71f 73f
1:08am 16 22 mph 1014.4mb 71f 73f
12:08am 13 18 mph 1014.9mb 71f 73f
Thu 04/27 11:08pm 9 11 mph 1015.3mb 71f 72f
10:08pm 4 9 mph 1014.9mb 71f 72f
9:08pm 9 16 mph 1013.5mb 71f 73f
8:08pm 13 18 mph 1012.8mb 71f 72f
7:08pm 7 11 mph 1013.3mb 71f 72f
6:08pm 9 13 mph 1013.6mb 72f 72f
5:08pm 11 16 mph 1013.2mb 72f 73f
4:08pm 11 18 mph 1013.2mb 71f 73f
3:08pm 11 18 mph 1013.5mb 71f 73f
2:08pm 11 18 mph 1013.4mb 71f 72f
1:08pm 11 18 mph 1013.3mb 71f 72f
12:08pm 13 22 mph 1014.1mb 71f 72f
11:08am 9 16 mph 1014.7mb 71f 72f
10:08am 11 18 mph 1014.7mb 70f 72f
9:08am 7 11 mph 1014mb 70f 71f
8:08am 7 9 mph 1013mb 70f 71f
7:08am 4 7 mph 1012.6mb 70f 70f
6:08am 4 9 mph 1012.6mb 70f 70f
5:08am 4 7 mph 1012.3mb 70f 70f
4:08am 7 11 mph 1011.9mb 70f 70f
3:08am 11 13 mph 1012mb 70f 70f
2:08am  -  mph 1012.1mb 70f 71f
1:08am 13 18 mph 1012.2mb 70f 71f
12:08am 13 18 mph 1011.8mb 70f 71f
Wed 04/26 11:08pm 11 20 mph 1011.7mb 70f 71f
10:08pm 11 18 mph 1011.5mb 70f 71f
9:08pm 11 18 mph 1011mb 70f 71f
8:08pm 11 18 mph 1010.6mb 70f 71f
7:08pm 7 13 mph 1010.3mb 71f 71f
6:08pm 11 16 mph 1010.1mb 71f 71f
5:08pm 11 20 mph 1009.7mb 71f 71f
4:08pm 11 20 mph 1009.7mb 71f 71f
3:08pm 13 20 mph 1009.5mb 71f 71f
2:08pm 9 11 mph 1010.4mb 71f 71f
1:08pm 13 18 mph 1011mb 71f 69f
12:08pm 4 9 mph 1011.5mb 70f 70f
11:08am 9 11 mph 1011.4mb 70f 68f
10:08am 7 11 mph 1010.8mb 70f 67f
9:08am 7 11 mph 1010.1mb 69f 65f